Главная страница
METAR-TAF:

METAR-TAF

Аэропорты :

Нджамена, Чад

широта: 12-08N, долгота: 015-02E, высота над уровнем моря: 295 м

Текущие метеонаблюдения

Эта сводка был подготовлена 31 минут назад, в 01:00 UTC
Ветер 6 Узел от южный-юго-западный
Температура 28°C
Влажность 62%
Давление 1011 hPa
Видимость 10 км и более
небольшая облачность на высоте 5000 фута, Кучево-дождевые.

METAR: FTTJ 240100Z 21006KT 9999 FEW050CB 28/20 Q1011 NOSIG

Время: 02:31 (01:31 UTC)

Прогноз

Эта сводка был подготовлена 2 часа и 31 минут назад, в 23:00 UTC
Прогноз действительный с 24-го 00 UTC до 25-го 06 UTC
Ветер 3 Узел переменных направлений
Видимость: 8000 м
небольшая облачность на высоте 3000 фута
небольшая облачность на высоте 5000 фута, Кучево-дождевые.
временами
С 24-го 01 UTC до 24-го 06 UTC
Видимость: 4000 м
гроза, дождь
изменения
С 24-го 07 UTC до 24-го 09 UTC
Ветер 10 Узел от юго-западный

TAF: FTTJ 232300Z 2400/2506 VRB03KT 8000 FEW030 FEW050CB TEMPO 2401/2406 4000 TSRA BECMG 2407/2409 22010KT

Метеонаблюдения и прогнозы для более 4000 аэропортов (сводки METAR и TAF).

Имеющиеся станции представлены на карте желтыми и красными точками.

Чтобы увидеть название станции, наведите на нее мышь.

Затем щелкните, чтобы увидеть метеонаблюдения и метеопрогнозы.

Управление картой: чтобы увеличить масштаб, щелкните зеленые кнопки с черным крестиком; чтобы уменьшить масштаб, щелкните зеленую кнопку с тире; для просмотра соседних карт щелкайте зеленые стрелки.


METAR-TAF: